sensor_id;sensor_type;location;lat;lon;timestamp;pressure;altitude;pressure_sealevel;temperature;humidity
67517;BME280;54359;59.124;37.910;2022-10-17T00:02:23;100074.00;;;9.20;71.28
67517;BME280;54359;59.124;37.910;2022-10-17T00:04:51;100070.66;;;9.24;71.14
67517;BME280;54359;59.124;37.910;2022-10-17T00:07:18;100081.88;;;9.29;71.55
67517;BME280;54359;59.124;37.910;2022-10-17T00:09:47;100074.91;;;9.22;71.89
67517;BME280;54359;59.124;37.910;2022-10-17T00:12:13;100077.66;;;9.33;71.22
67517;BME280;54359;59.124;37.910;2022-10-17T00:14:42;100046.53;;;9.14;71.36
67517;BME280;54359;59.124;37.910;2022-10-17T00:17:08;100072.50;;;9.33;71.98
67517;BME280;54359;59.124;37.910;2022-10-17T00:19:35;100065.69;;;9.33;71.21
67517;BME280;54359;59.124;37.910;2022-10-17T00:22:03;100072.56;;;9.36;71.52
67517;BME280;54359;59.124;37.910;2022-10-17T00:24:30;100056.38;;;9.38;71.04
67517;BME280;54359;59.124;37.910;2022-10-17T00:27:04;100058.03;;;9.36;70.91
67517;BME280;54359;59.124;37.910;2022-10-17T00:29:33;100058.94;;;9.38;71.60
67517;BME280;54359;59.124;37.910;2022-10-17T00:32:02;100040.84;;;9.31;71.57
67517;BME280;54359;59.124;37.910;2022-10-17T00:34:31;100020.25;;;9.26;71.24
67517;BME280;54359;59.124;37.910;2022-10-17T00:36:57;100027.13;;;9.27;70.75
67517;BME280;54359;59.124;37.910;2022-10-17T00:39:25;100023.69;;;9.28;70.95
67517;BME280;54359;59.124;37.910;2022-10-17T00:41:55;100010.75;;;9.20;71.40
67517;BME280;54359;59.124;37.910;2022-10-17T00:47:00;99999.59;;;9.18;71.60
67517;BME280;54359;59.124;37.910;2022-10-17T00:49:30;100011.72;;;9.29;71.71
67517;BME280;54359;59.124;37.910;2022-10-17T00:52:25;99998.84;;;9.24;71.58
67517;BME280;54359;59.124;37.910;2022-10-17T00:54:58;99997.28;;;9.34;71.78
67517;BME280;54359;59.124;37.910;2022-10-17T00:57:29;99994.75;;;9.35;71.59
67517;BME280;54359;59.124;37.910;2022-10-17T00:59:58;99968.97;;;9.27;71.94
67517;BME280;54359;59.124;37.910;2022-10-17T01:02:29;99968.97;;;9.27;71.76
67517;BME280;54359;59.124;37.910;2022-10-17T01:04:55;99935.38;;;9.11;71.64
67517;BME280;54359;59.124;37.910;2022-10-17T01:07:26;99969.09;;;9.37;72.02
67517;BME280;54359;59.124;37.910;2022-10-17T01:09:53;99969.13;;;9.38;71.08
67517;BME280;54359;59.124;37.910;2022-10-17T01:12:25;99955.47;;;9.38;71.23
67517;BME280;54359;59.124;37.910;2022-10-17T01:17:58;99972.75;;;9.51;71.42
67517;BME280;54359;59.124;37.910;2022-10-17T01:23:50;99958.25;;;9.55;71.38
67517;BME280;54359;59.124;37.910;2022-10-17T01:29:32;99948.84;;;9.55;71.28
67517;BME280;54359;59.124;37.910;2022-10-17T01:32:04;99948.84;;;9.55;71.52
67517;BME280;54359;59.124;37.910;2022-10-17T01:34:40;99932.44;;;9.44;70.92
67517;BME280;54359;59.124;37.910;2022-10-17T01:40:38;99917.03;;;9.42;71.38
67517;BME280;54359;59.124;37.910;2022-10-17T01:43:23;99917.00;;;9.39;70.99
67517;BME280;54359;59.124;37.910;2022-10-17T01:46:01;99922.28;;;9.50;71.34
67517;BME280;54359;59.124;37.910;2022-10-17T01:48:36;99906.78;;;9.42;70.96
67517;BME280;54359;59.124;37.910;2022-10-17T01:54:20;99926.53;;;9.48;71.09
67517;BME280;54359;59.124;37.910;2022-10-17T01:56:51;99905.94;;;9.43;70.97
67517;BME280;54359;59.124;37.910;2022-10-17T01:59:23;99901.69;;;9.47;71.09
67517;BME280;54359;59.124;37.910;2022-10-17T02:01:53;99879.31;;;9.35;71.52
67517;BME280;54359;59.124;37.910;2022-10-17T02:04:22;99875.00;;;9.33;71.10
67517;BME280;54359;59.124;37.910;2022-10-17T02:06:49;99895.69;;;9.43;71.03
67517;BME280;54359;59.124;37.910;2022-10-17T02:09:29;99892.19;;;9.38;71.23
67517;BME280;54359;59.124;37.910;2022-10-17T02:12:08;99912.00;;;9.49;71.37
67517;BME280;54359;59.124;37.910;2022-10-17T02:18:54;99915.34;;;9.44;70.94
67517;BME280;54359;59.124;37.910;2022-10-17T02:20:56;99899.94;;;9.41;70.86
67517;BME280;54359;59.124;37.910;2022-10-17T02:26:31;99849.81;;;9.05;71.03
67517;BME280;54359;59.124;37.910;2022-10-17T02:29:16;99893.03;;;9.37;70.85
67517;BME280;54359;59.124;37.910;2022-10-17T02:31:48;99861.13;;;9.17;71.71
67517;BME280;54359;59.124;37.910;2022-10-17T02:34:18;99886.16;;;9.36;70.84
67517;BME280;54359;59.124;37.910;2022-10-17T02:36:53;99864.66;;;9.25;70.83
67517;BME280;54359;59.124;37.910;2022-10-17T02:39:22;99874.09;;;9.29;71.16
67517;BME280;54359;59.124;37.910;2022-10-17T02:41:51;99886.09;;;9.32;70.67
67517;BME280;54359;59.124;37.910;2022-10-17T02:44:19;99861.25;;;9.27;71.27
67517;BME280;54359;59.124;37.910;2022-10-17T02:46:58;99823.34;;;9.06;71.14
67517;BME280;54359;59.124;37.910;2022-10-17T02:49:30;99857.00;;;9.30;71.08
67517;BME280;54359;59.124;37.910;2022-10-17T02:52:14;99857.91;;;9.33;70.77
67517;BME280;54359;59.124;37.910;2022-10-17T02:54:47;99864.72;;;9.33;71.11
67517;BME280;54359;59.124;37.910;2022-10-17T02:57:26;99857.03;;;9.33;70.90
67517;BME280;54359;59.124;37.910;2022-10-17T02:59:57;99851.91;;;9.33;71.51
67517;BME280;54359;59.124;37.910;2022-10-17T03:02:36;99852.75;;;9.32;70.98
67517;BME280;54359;59.124;37.910;2022-10-17T03:05:04;99816.53;;;9.10;70.84
67517;BME280;54359;59.124;37.910;2022-10-17T03:07:35;99815.75;;;9.13;71.04
67517;BME280;54359;59.124;37.910;2022-10-17T03:10:05;99844.16;;;9.28;70.80
67517;BME280;54359;59.124;37.910;2022-10-17T03:12:34;99842.47;;;9.30;70.36
67517;BME280;54359;59.124;37.910;2022-10-17T03:15:22;99839.88;;;9.27;71.01
67517;BME280;54359;59.124;37.910;2022-10-17T03:17:49;99793.25;;;8.93;70.61
67517;BME280;54359;59.124;37.910;2022-10-17T03:20:16;99817.44;;;9.11;71.63
67517;BME280;54359;59.124;37.910;2022-10-17T03:22:42;99834.44;;;9.05;71.33
67517;BME280;54359;59.124;37.910;2022-10-17T03:25:10;99838.75;;;9.06;70.26
67517;BME280;54359;59.124;37.910;2022-10-17T03:27:39;99843.59;;;8.90;70.71
67517;BME280;54359;59.124;37.910;2022-10-17T03:30:06;99837.41;;;8.75;70.76
67517;BME280;54359;59.124;37.910;2022-10-17T03:32:36;99803.59;;;8.44;70.72
67517;BME280;54359;59.124;37.910;2022-10-17T03:35:05;99831.97;;;8.54;70.66
67517;BME280;54359;59.124;37.910;2022-10-17T03:37:36;99829.22;;;8.44;71.40
67517;BME280;54359;59.124;37.910;2022-10-17T03:40:08;99823.97;;;8.38;71.53
67517;BME280;54359;59.124;37.910;2022-10-17T03:42:35;99811.06;;;8.32;71.51
67517;BME280;54359;59.124;37.910;2022-10-17T03:45:38;99792.16;;;8.22;72.00
67517;BME280;54359;59.124;37.910;2022-10-17T03:48:07;99788.75;;;8.25;71.69
67517;BME280;54359;59.124;37.910;2022-10-17T03:51:04;99789.66;;;8.27;71.31
67517;BME280;54359;59.124;37.910;2022-10-17T03:53:39;99753.53;;;8.10;71.80
67517;BME280;54359;59.124;37.910;2022-10-17T03:56:21;99779.38;;;8.25;72.30
67517;BME280;54359;59.124;37.910;2022-10-17T03:59:16;99748.44;;;8.13;72.04
67517;BME280;54359;59.124;37.910;2022-10-17T04:02:16;99744.09;;;8.07;71.87
67517;BME280;54359;59.124;37.910;2022-10-17T04:04:43;99751.75;;;8.07;72.70
67517;BME280;54359;59.124;37.910;2022-10-17T04:07:09;99736.09;;;7.88;72.01
67517;BME280;54359;59.124;37.910;2022-10-17T04:09:39;99764.56;;;8.06;71.51
67517;BME280;54359;59.124;37.910;2022-10-17T04:12:20;99737.78;;;7.89;72.00
67517;BME280;54359;59.124;37.910;2022-10-17T04:14:48;99755.88;;;7.99;72.91
67517;BME280;54359;59.124;37.910;2022-10-17T04:17:15;99733.78;;;8.03;72.37
67517;BME280;54359;59.124;37.910;2022-10-17T04:19:41;99742.41;;;8.08;72.05
67517;BME280;54359;59.124;37.910;2022-10-17T04:22:19;99735.47;;;8.02;72.30
67517;BME280;54359;59.124;37.910;2022-10-17T04:24:50;99752.81;;;8.19;72.22
67517;BME280;54359;59.124;37.910;2022-10-17T04:27:37;99714.03;;;7.97;72.39
67517;BME280;54359;59.124;37.910;2022-10-17T04:30:10;99733.84;;;8.06;72.12
67517;BME280;54359;59.124;37.910;2022-10-17T04:32:45;99746.91;;;8.23;72.52
67517;BME280;54359;59.124;37.910;2022-10-17T04:35:22;99711.63;;;8.05;72.30
67517;BME280;54359;59.124;37.910;2022-10-17T04:38:04;99753.78;;;8.25;72.18
67517;BME280;54359;59.124;37.910;2022-10-17T04:40:30;99724.44;;;8.06;71.82
67517;BME280;54359;59.124;37.910;2022-10-17T04:42:57;99726.16;;;8.07;72.50
67517;BME280;54359;59.124;37.910;2022-10-17T04:45:41;99788.88;;;8.31;72.40
67517;BME280;54359;59.124;37.910;2022-10-17T04:48:10;99739.03;;;8.11;72.44
67517;BME280;54359;59.124;37.910;2022-10-17T04:50:36;99686.53;;;7.84;72.08
67517;BME280;54359;59.124;37.910;2022-10-17T04:53:21;99771.84;;;8.35;72.27
67517;BME280;54359;59.124;37.910;2022-10-17T04:55:47;99744.22;;;8.15;72.37
67517;BME280;54359;59.124;37.910;2022-10-17T05:02:12;99745.19;;;8.23;72.05
67517;BME280;54359;59.124;37.910;2022-10-17T05:04:39;99740.84;;;8.16;72.13
67517;BME280;54359;59.124;37.910;2022-10-17T05:07:07;99773.56;;;8.36;72.63
67517;BME280;54359;59.124;37.910;2022-10-17T05:09:47;99691.06;;;8.00;72.90
67517;BME280;54359;59.124;37.910;2022-10-17T05:31:42;99731.72;;;8.35;72.61
67517;BME280;54359;59.124;37.910;2022-10-17T05:34:22;99712.00;;;8.30;72.43
67517;BME280;54359;59.124;37.910;2022-10-17T05:36:49;99668.91;;;8.01;72.90
67517;BME280;54359;59.124;37.910;2022-10-17T05:39:20;99689.63;;;8.18;72.41
67517;BME280;54359;59.124;37.910;2022-10-17T05:41:49;99685.50;;;8.27;72.52
67517;BME280;54359;59.124;37.910;2022-10-17T05:44:17;99697.59;;;8.36;72.96
67517;BME280;54359;59.124;37.910;2022-10-17T05:46:50;99636.53;;;8.04;73.32
67517;BME280;54359;59.124;37.910;2022-10-17T05:55:57;99702.13;;;8.53;72.97
67517;BME280;54359;59.124;37.910;2022-10-17T05:58:25;99666.06;;;8.40;73.82
67517;BME280;54359;59.124;37.910;2022-10-17T06:00:58;99662.63;;;8.38;73.46
67517;BME280;54359;59.124;37.910;2022-10-17T06:03:26;99668.78;;;8.50;73.72
67517;BME280;54359;59.124;37.910;2022-10-17T06:05:52;99672.31;;;8.58;73.05
67517;BME280;54359;59.124;37.910;2022-10-17T06:08:19;99671.47;;;8.57;73.44
67517;BME280;54359;59.124;37.910;2022-10-17T06:10:47;99669.69;;;8.55;72.88
67517;BME280;54359;59.124;37.910;2022-10-17T06:13:35;99651.69;;;8.49;73.42
67517;BME280;54359;59.124;37.910;2022-10-17T06:16:08;99643.09;;;8.43;73.62
67517;BME280;54359;59.124;37.910;2022-10-17T06:18:35;99653.31;;;8.42;72.94
67517;BME280;54359;59.124;37.910;2022-10-17T06:21:13;99620.50;;;8.18;73.37
67517;BME280;54359;59.124;37.910;2022-10-17T06:23:52;99607.78;;;8.22;73.39
67517;BME280;54359;59.124;37.910;2022-10-17T06:26:30;99653.41;;;8.48;73.42
67517;BME280;54359;59.124;37.910;2022-10-17T06:29:05;99678.47;;;8.71;72.94
67517;BME280;54359;59.124;37.910;2022-10-17T06:31:37;99672.59;;;8.78;73.68
67517;BME280;54359;59.124;37.910;2022-10-17T06:34:03;99640.00;;;8.68;74.00
67517;BME280;54359;59.124;37.910;2022-10-17T06:36:35;99633.91;;;8.61;74.10
67517;BME280;54359;59.124;37.910;2022-10-17T06:39:04;99605.56;;;8.45;73.31
67517;BME280;54359;59.124;37.910;2022-10-17T06:41:38;99680.28;;;8.79;73.16
67517;BME280;54359;59.124;37.910;2022-10-17T06:44:07;99661.47;;;8.76;73.50
67517;BME280;54359;59.124;37.910;2022-10-17T06:47:06;99688.94;;;8.86;73.96
67517;BME280;54359;59.124;37.910;2022-10-17T06:49:39;99661.41;;;8.73;73.39
67517;BME280;54359;59.124;37.910;2022-10-17T06:52:25;99667.34;;;8.69;74.23
67517;BME280;54359;59.124;37.910;2022-10-17T06:55:20;99669.91;;;8.69;73.46
67517;BME280;54359;59.124;37.910;2022-10-17T06:58:02;99673.50;;;8.83;73.76
67517;BME280;54359;59.124;37.910;2022-10-17T07:00:58;99668.13;;;8.64;73.81
67517;BME280;54359;59.124;37.910;2022-10-17T07:03:29;99695.72;;;8.82;73.46
67517;BME280;54359;59.124;37.910;2022-10-17T07:06:44;99688.78;;;8.77;74.37
67517;BME280;54359;59.124;37.910;2022-10-17T07:09:20;99699.97;;;8.82;73.71
67517;BME280;54359;59.124;37.910;2022-10-17T07:11:56;99694.78;;;8.76;73.89
67517;BME280;54359;59.124;37.910;2022-10-17T07:14:23;99681.84;;;8.68;74.61
67517;BME280;54359;59.124;37.910;2022-10-17T07:17:00;99655.22;;;8.55;73.82
67517;BME280;54359;59.124;37.910;2022-10-17T07:19:27;99689.63;;;8.74;73.86
67517;BME280;54359;59.124;37.910;2022-10-17T07:21:54;99702.53;;;8.82;73.56
67517;BME280;54359;59.124;37.910;2022-10-17T07:24:41;99698.28;;;8.82;73.59
67517;BME280;54359;59.124;37.910;2022-10-17T07:27:14;99711.09;;;8.85;73.75
67517;BME280;54359;59.124;37.910;2022-10-17T07:29:40;99678.53;;;8.77;73.45
67517;BME280;54359;59.124;37.910;2022-10-17T07:32:10;99652.75;;;8.64;73.82
67517;BME280;54359;59.124;37.910;2022-10-17T07:34:37;99654.53;;;8.70;73.27
67517;BME280;54359;59.124;37.910;2022-10-17T07:37:06;99671.78;;;8.82;74.15
67517;BME280;54359;59.124;37.910;2022-10-17T07:39:37;99608.97;;;8.46;74.17
67517;BME280;54359;59.124;37.910;2022-10-17T07:42:09;99629.63;;;8.58;74.73
67517;BME280;54359;59.124;37.910;2022-10-17T07:44:37;99669.28;;;8.86;74.40
67517;BME280;54359;59.124;37.910;2022-10-17T07:47:03;99648.63;;;8.74;73.94
67517;BME280;54359;59.124;37.910;2022-10-17T07:49:31;99634.88;;;8.69;73.91
67517;BME280;54359;59.124;37.910;2022-10-17T07:52:24;99671.03;;;8.91;73.93
67517;BME280;54359;59.124;37.910;2022-10-17T07:54:50;99644.34;;;8.75;73.65
67517;BME280;54359;59.124;37.910;2022-10-17T07:57:17;99673.63;;;8.94;73.60
67517;BME280;54359;59.124;37.910;2022-10-17T07:59:43;99635.84;;;8.79;74.73
67517;BME280;54359;59.124;37.910;2022-10-17T08:02:28;99675.34;;;8.95;74.51
67517;BME280;54359;59.124;37.910;2022-10-17T08:04:59;99665.97;;;8.97;74.73
67517;BME280;54359;59.124;37.910;2022-10-17T08:07:26;99635.00;;;8.78;74.00
67517;BME280;54359;59.124;37.910;2022-10-17T08:09:52;99650.47;;;8.86;74.64
67517;BME280;54359;59.124;37.910;2022-10-17T08:12:18;99660.84;;;8.97;74.67
67517;BME280;54359;59.124;37.910;2022-10-17T08:14:46;99632.41;;;8.77;74.02
67517;BME280;54359;59.124;37.910;2022-10-17T08:17:12;99626.50;;;8.82;74.70
67517;BME280;54359;59.124;37.910;2022-10-17T08:19:39;99648.88;;;8.97;74.82
67517;BME280;54359;59.124;37.910;2022-10-17T08:22:05;99617.09;;;8.80;74.49
67517;BME280;54359;59.124;37.910;2022-10-17T08:24:33;99616.31;;;8.89;74.29
67517;BME280;54359;59.124;37.910;2022-10-17T08:26:59;99641.31;;;9.06;74.21
67517;BME280;54359;59.124;37.910;2022-10-17T08:29:26;99601.03;;;8.98;73.97
67517;BME280;54359;59.124;37.910;2022-10-17T08:31:52;99607.09;;;9.04;74.76
67517;BME280;54359;59.124;37.910;2022-10-17T08:34:18;99614.91;;;9.18;74.25
67517;BME280;54359;59.124;37.910;2022-10-17T08:36:46;99604.59;;;9.12;74.84
67517;BME280;54359;59.124;37.910;2022-10-17T08:39:15;99556.56;;;8.93;73.91
67517;BME280;54359;59.124;37.910;2022-10-17T08:44:56;99585.09;;;9.28;74.55
67517;BME280;54359;59.124;37.910;2022-10-17T08:47:34;99608.38;;;9.48;75.25
67517;BME280;54359;59.124;37.910;2022-10-17T08:50:06;99602.47;;;9.58;74.49
67517;BME280;54359;59.124;37.910;2022-10-17T08:55:36;99558.63;;;9.29;74.54
67517;BME280;54359;59.124;37.910;2022-10-17T08:58:13;99574.13;;;9.44;74.88
67517;BME280;54359;59.124;37.910;2022-10-17T09:00:45;99577.78;;;9.76;74.85
67517;BME280;54359;59.124;37.910;2022-10-17T09:03:27;99528.09;;;9.60;74.79
67517;BME280;54359;59.124;37.910;2022-10-17T09:10:00;99591.94;;;10.52;74.22
67517;BME280;54359;59.124;37.910;2022-10-17T09:20:13;99565.88;;;9.84;74.05
67517;BME280;54359;59.124;37.910;2022-10-17T09:23:04;99539.22;;;9.62;74.68
67517;BME280;54359;59.124;37.910;2022-10-17T09:25:57;99532.25;;;9.49;74.10
67517;BME280;54359;59.124;37.910;2022-10-17T09:32:22;99543.50;;;9.64;74.52
67517;BME280;54359;59.124;37.910;2022-10-17T09:34:52;99478.28;;;9.32;74.85
67517;BME280;54359;59.124;37.910;2022-10-17T09:37:31;99522.13;;;9.67;74.13
67517;BME280;54359;59.124;37.910;2022-10-17T09:39:59;99552.16;;;9.80;74.33
67517;BME280;54359;59.124;37.910;2022-10-17T09:42:27;99525.56;;;9.69;74.74
67517;BME280;54359;59.124;37.910;2022-10-17T09:47:41;99475.06;;;9.65;74.39
67517;BME280;54359;59.124;37.910;2022-10-17T09:50:24;99504.25;;;9.84;74.57
67517;BME280;54359;59.124;37.910;2022-10-17T09:53:01;99513.00;;;10.15;74.38
67517;BME280;54359;59.124;37.910;2022-10-17T09:55:42;99472.69;;;10.02;74.23
67517;BME280;54359;59.124;37.910;2022-10-17T09:58:11;99470.22;;;10.23;74.67
67517;BME280;54359;59.124;37.910;2022-10-17T10:00:50;99451.34;;;10.14;74.02
67517;BME280;54359;59.124;37.910;2022-10-17T10:03:33;99468.56;;;10.33;73.99
67517;BME280;54359;59.124;37.910;2022-10-17T10:06:20;99507.19;;;10.56;74.00
67517;BME280;54359;59.124;37.910;2022-10-17T10:08:56;99502.88;;;10.54;74.22
67517;BME280;54359;59.124;37.910;2022-10-17T10:11:49;99490.03;;;10.51;73.89
67517;BME280;54359;59.124;37.910;2022-10-17T10:14:23;99484.84;;;10.43;73.85
67517;BME280;54359;59.124;37.910;2022-10-17T10:17:05;99483.19;;;10.53;74.05
67517;BME280;54359;59.124;37.910;2022-10-17T10:19:37;99483.19;;;10.54;74.42
67517;BME280;54359;59.124;37.910;2022-10-17T10:22:14;99475.47;;;10.62;74.36
67517;BME280;54359;59.124;37.910;2022-10-17T10:24:42;99459.22;;;10.64;74.09
67517;BME280;54359;59.124;37.910;2022-10-17T10:27:13;99459.22;;;10.74;74.12
67517;BME280;54359;59.124;37.910;2022-10-17T10:29:49;99415.53;;;10.75;74.22
67517;BME280;54359;59.124;37.910;2022-10-17T10:32:25;99456.66;;;11.27;74.44
67517;BME280;54359;59.124;37.910;2022-10-17T10:35:17;99427.50;;;11.33;74.09
67517;BME280;54359;59.124;37.910;2022-10-17T10:37:52;99425.75;;;11.46;73.82
67517;BME280;54359;59.124;37.910;2022-10-17T10:40:27;99407.78;;;11.38;73.68
67517;BME280;54359;59.124;37.910;2022-10-17T10:42:59;99396.59;;;11.38;73.62
67517;BME280;54359;59.124;37.910;2022-10-17T10:45:49;99383.72;;;11.44;74.00
67517;BME280;54359;59.124;37.910;2022-10-17T10:48:52;99394.75;;;11.87;74.29
67517;BME280;54359;59.124;37.910;2022-10-17T10:51:45;99424.28;;;12.79;73.47
67517;BME280;54359;59.124;37.910;2022-10-17T10:54:38;99387.22;;;12.89;72.42
67517;BME280;54359;59.124;37.910;2022-10-17T10:57:29;99402.66;;;12.96;72.88
67517;BME280;54359;59.124;37.910;2022-10-17T11:00:41;99389.69;;;13.06;72.83
67517;BME280;54359;59.124;37.910;2022-10-17T11:03:15;99375.38;;;12.68;72.25
67517;BME280;54359;59.124;37.910;2022-10-17T11:05:53;99392.69;;;12.51;72.24
67517;BME280;54359;59.124;37.910;2022-10-17T11:08:47;99398.91;;;12.22;72.97
67517;BME280;54359;59.124;37.910;2022-10-17T11:11:40;99394.69;;;12.04;73.21
67517;BME280;54359;59.124;37.910;2022-10-17T11:14:18;99373.28;;;11.84;73.09
67517;BME280;54359;59.124;37.910;2022-10-17T11:19:37;99356.31;;;11.31;72.77
67517;BME280;54359;59.124;37.910;2022-10-17T11:22:20;99408.66;;;11.20;73.10
67517;BME280;54359;59.124;37.910;2022-10-17T11:27:45;99402.69;;;10.69;73.12
67517;BME280;54359;59.124;37.910;2022-10-17T11:30:15;99396.59;;;10.25;73.80
67517;BME280;54359;59.124;37.910;2022-10-17T11:32:53;99407.59;;;9.92;73.40
67517;BME280;54359;59.124;37.910;2022-10-17T11:35:33;99398.91;;;9.61;74.30
67517;BME280;54359;59.124;37.910;2022-10-17T11:41:22;99459.34;;;9.16;76.04
67517;BME280;54359;59.124;37.910;2022-10-17T11:50:30;99383.47;;;9.49;78.16
67517;BME280;54359;59.124;37.910;2022-10-17T11:53:28;99423.78;;;9.71;77.91
67517;BME280;54359;59.124;37.910;2022-10-17T11:56:19;99372.28;;;9.40;78.44
67517;BME280;54359;59.124;37.910;2022-10-17T12:05:49;99392.13;;;9.72;80.13
67517;BME280;54359;59.124;37.910;2022-10-17T12:08:56;99389.66;;;9.95;80.25
67517;BME280;54359;59.124;37.910;2022-10-17T12:11:58;99401.69;;;10.13;80.12
67517;BME280;54359;59.124;37.910;2022-10-17T12:14:47;99396.53;;;10.10;80.20
67517;BME280;54359;59.124;37.910;2022-10-17T12:17:52;99382.88;;;10.20;81.27
67517;BME280;54359;59.124;37.910;2022-10-17T12:20:41;99368.34;;;11.27;82.41
67517;BME280;54359;59.124;37.910;2022-10-17T12:23:39;99355.09;;;12.21;81.95
67517;BME280;54359;59.124;37.910;2022-10-17T12:26:27;99359.28;;;12.34;80.84
67517;BME280;54359;59.124;37.910;2022-10-17T12:28:58;99371.44;;;12.18;80.72
67517;BME280;54359;59.124;37.910;2022-10-17T12:31:27;99331.31;;;11.65;80.74
67517;BME280;54359;59.124;37.910;2022-10-17T12:34:26;99350.28;;;11.39;80.90
67517;BME280;54359;59.124;37.910;2022-10-17T12:37:03;99350.38;;;11.10;81.58
67517;BME280;54359;59.124;37.910;2022-10-17T12:42:30;99355.56;;;10.61;82.34
67517;BME280;54359;59.124;37.910;2022-10-17T12:51:22;99372.56;;;10.05;82.28
67517;BME280;54359;59.124;37.910;2022-10-17T12:56:49;99367.34;;;9.79;82.59
67517;BME280;54359;59.124;37.910;2022-10-17T13:00:03;99339.81;;;9.42;83.35
67517;BME280;54359;59.124;37.910;2022-10-17T13:02:33;99354.38;;;9.43;82.59
67517;BME280;54359;59.124;37.910;2022-10-17T13:05:13;99333.75;;;9.25;83.41
67517;BME280;54359;59.124;37.910;2022-10-17T13:07:58;99332.81;;;9.12;83.42
67517;BME280;54359;59.124;37.910;2022-10-17T13:10:34;99330.25;;;9.14;83.39
67517;BME280;54359;59.124;37.910;2022-10-17T13:13:15;99359.50;;;9.43;83.04
67517;BME280;54359;59.124;37.910;2022-10-17T13:15:50;99337.13;;;9.22;83.29
67517;BME280;54359;59.124;37.910;2022-10-17T13:18:34;99350.91;;;9.37;83.43
67517;BME280;54359;59.124;37.910;2022-10-17T13:21:55;99386.78;;;9.32;83.42
67517;BME280;54359;59.124;37.910;2022-10-17T13:24:34;99367.03;;;9.17;83.21
67517;BME280;54359;59.124;37.910;2022-10-17T13:27:26;99340.31;;;8.81;83.81
67517;BME280;54359;59.124;37.910;2022-10-17T13:29:51;99297.47;;;8.65;84.58
67517;BME280;54359;59.124;37.910;2022-10-17T13:32:17;99304.25;;;8.57;84.03
67517;BME280;54359;59.124;37.910;2022-10-17T13:34:44;99326.41;;;8.47;84.45
67517;BME280;54359;59.124;37.910;2022-10-17T13:37:13;99379.56;;;8.74;84.76
67517;BME280;54359;59.124;37.910;2022-10-17T13:39:42;99412.97;;;8.86;84.99
67517;BME280;54359;59.124;37.910;2022-10-17T13:42:23;99323.03;;;8.54;84.73
67517;BME280;54359;59.124;37.910;2022-10-17T13:44:50;99382.22;;;8.90;84.73
67517;BME280;54359;59.124;37.910;2022-10-17T13:47:26;99401.91;;;8.92;84.90
67517;BME280;54359;59.124;37.910;2022-10-17T13:50:02;99388.16;;;8.82;84.57
67517;BME280;54359;59.124;37.910;2022-10-17T13:52:35;99360.78;;;8.74;85.21
67517;BME280;54359;59.124;37.910;2022-10-17T13:55:17;99334.69;;;8.26;85.16
67517;BME280;54359;59.124;37.910;2022-10-17T13:57:45;99329.53;;;8.21;84.94
67517;BME280;54359;59.124;37.910;2022-10-17T14:00:21;99372.38;;;8.38;85.74
67517;BME280;54359;59.124;37.910;2022-10-17T14:02:53;99369.75;;;8.32;85.27
67517;BME280;54359;59.124;37.910;2022-10-17T14:05:21;99368.81;;;8.23;85.75
67517;BME280;54359;59.124;37.910;2022-10-17T14:07:55;99353.34;;;8.13;85.67
67517;BME280;54359;59.124;37.910;2022-10-17T14:12:51;99369.56;;;8.13;85.93
67517;BME280;54359;59.124;37.910;2022-10-17T14:15:27;99370.38;;;8.09;86.02
67517;BME280;54359;59.124;37.910;2022-10-17T14:18:04;99378.91;;;8.10;86.08
67517;BME280;54359;59.124;37.910;2022-10-17T14:20:48;99372.97;;;8.12;86.33
67517;BME280;54359;59.124;37.910;2022-10-17T14:23:42;99392.63;;;8.15;86.32
67517;BME280;54359;59.124;37.910;2022-10-17T14:26:20;99377.28;;;8.15;86.85
67517;BME280;54359;59.124;37.910;2022-10-17T14:32:05;99364.44;;;8.10;87.13
67517;BME280;54359;59.124;37.910;2022-10-17T14:34:37;99375.59;;;8.18;86.64
67517;BME280;54359;59.124;37.910;2022-10-17T14:37:58;99372.97;;;8.14;87.08
67517;BME280;54359;59.124;37.910;2022-10-17T14:40:32;99370.38;;;8.09;87.35
67517;BME280;54359;59.124;37.910;2022-10-17T14:43:21;99388.44;;;8.23;87.04
67517;BME280;54359;59.124;37.910;2022-10-17T14:45:49;99364.50;;;8.16;87.56
67517;BME280;54359;59.124;37.910;2022-10-17T14:48:20;99412.38;;;8.28;87.25
67517;BME280;54359;59.124;37.910;2022-10-17T14:51:14;99406.44;;;8.29;87.43
67517;BME280;54359;59.124;37.910;2022-10-17T14:54:26;99405.50;;;8.24;87.31
67517;BME280;54359;59.124;37.910;2022-10-17T15:00:12;99406.34;;;8.21;87.27
67517;BME280;54359;59.124;37.910;2022-10-17T15:03:30;99412.38;;;8.26;87.49
67517;BME280;54359;59.124;37.910;2022-10-17T15:06:20;99427.75;;;8.28;87.30
67517;BME280;54359;59.124;37.910;2022-10-17T15:08:53;99439.72;;;8.29;87.87
67517;BME280;54359;59.124;37.910;2022-10-17T15:11:30;99425.22;;;8.31;87.77
67517;BME280;54359;59.124;37.910;2022-10-17T15:13:58;99430.31;;;8.26;88.33
67517;BME280;54359;59.124;37.910;2022-10-17T15:16:30;99455.97;;;8.33;88.48
67517;BME280;54359;59.124;37.910;2022-10-17T15:18:57;99438.94;;;8.35;88.24
67517;BME280;54359;59.124;37.910;2022-10-17T15:21:24;99463.69;;;8.36;88.02
67517;BME280;54359;59.124;37.910;2022-10-17T15:23:57;99457.72;;;8.35;87.79
67517;BME280;54359;59.124;37.910;2022-10-17T15:26:30;99446.56;;;8.29;88.81
67517;BME280;54359;59.124;37.910;2022-10-17T15:29:14;99466.97;;;8.22;88.37
67517;BME280;54359;59.124;37.910;2022-10-17T15:31:45;99441.28;;;8.18;88.40
67517;BME280;54359;59.124;37.910;2022-10-17T15:34:15;99437.84;;;8.13;88.92
67517;BME280;54359;59.124;37.910;2022-10-17T15:36:49;99456.66;;;8.16;88.44
67517;BME280;54359;59.124;37.910;2022-10-17T15:39:15;99450.59;;;8.08;88.88
67517;BME280;54359;59.124;37.910;2022-10-17T15:41:43;99473.66;;;8.13;89.25
67517;BME280;54359;59.124;37.910;2022-10-17T15:44:13;99456.59;;;8.10;89.19
67517;BME280;54359;59.124;37.910;2022-10-17T15:46:50;99477.09;;;8.13;89.11